createdAt,value
2022-08-02T00:00:38.739Z,69.58
2022-08-02T00:03:05.860Z,70.28
2022-08-02T00:05:32.883Z,71.33
2022-08-02T00:07:59.939Z,71.81
2022-08-02T00:10:27.049Z,71.98
2022-08-02T00:12:54.073Z,72.19
2022-08-02T00:15:22.463Z,71.81
2022-08-02T00:17:49.731Z,71.30
2022-08-02T00:20:16.976Z,71.12
2022-08-02T00:22:44.024Z,70.14
2022-08-02T00:25:11.131Z,69.34
2022-08-02T00:27:38.259Z,67.82
2022-08-02T00:30:06.076Z,67.33
2022-08-02T00:32:33.122Z,67.43
2022-08-02T00:35:00.079Z,66.49
2022-08-02T00:37:27.174Z,67.31
2022-08-02T00:39:56.001Z,66.37
2022-08-02T00:42:23.058Z,66.56
2022-08-02T00:44:50.227Z,65.98
2022-08-02T00:47:19.543Z,65.35
2022-08-02T00:49:47.509Z,64.67
2022-08-02T00:52:15.076Z,65.24
2022-08-02T00:54:42.396Z,64.72
2022-08-02T00:57:09.672Z,64.87
2022-08-02T00:59:36.872Z,64.43
2022-08-02T01:02:03.998Z,64.51
2022-08-02T01:04:32.408Z,64.86
2022-08-02T01:07:12.787Z,64.97
2022-08-02T01:09:45.455Z,65.19
2022-08-02T01:12:13.353Z,64.80
2022-08-02T01:14:46.583Z,65.37
2022-08-02T01:17:24.278Z,65.74
2022-08-02T01:20:03.411Z,66.21
2022-08-02T01:23:02.251Z,66.96
2022-08-02T01:25:38.925Z,67.36
2022-08-02T01:28:24.210Z,67.71
2022-08-02T01:31:21.427Z,68.16
2022-08-02T01:34:11.795Z,67.99
2022-08-02T01:36:42.987Z,68.33
2022-08-02T01:39:26.931Z,68.52
2022-08-02T01:42:01.310Z,68.68
2022-08-02T01:44:32.146Z,67.98
2022-08-02T01:47:09.449Z,68.25
2022-08-02T01:49:38.733Z,68.05
2022-08-02T01:52:26.201Z,68.17
2022-08-02T01:55:09.841Z,67.41
2022-08-02T01:57:49.743Z,67.50
2022-08-02T02:00:18.783Z,66.89
2022-08-02T02:02:48.280Z,66.96
2022-08-02T02:05:18.878Z,66.76
2022-08-02T02:07:49.621Z,66.82
2022-08-02T02:10:22.198Z,66.59
2022-08-02T02:12:51.489Z,66.27
2022-08-02T02:15:18.999Z,66.24
2022-08-02T02:18:11.530Z,66.61
2022-08-02T02:20:37.252Z,66.66
2022-08-02T02:23:05.120Z,66.99
2022-08-02T02:25:36.471Z,67.21
2022-08-02T02:28:30.376Z,67.23
2022-08-02T02:31:06.575Z,67.68
2022-08-02T02:33:37.754Z,67.70
2022-08-02T02:36:08.077Z,68.14
2022-08-02T02:38:36.683Z,68.79
2022-08-02T02:41:07.037Z,69.00
2022-08-02T02:43:36.341Z,69.23
2022-08-02T02:46:05.437Z,69.37
2022-08-02T02:48:34.282Z,69.41
2022-08-02T02:51:08.268Z,69.60
2022-08-02T03:12:32.114Z,71.95
2022-08-02T03:15:01.800Z,71.13
2022-08-02T03:17:47.390Z,70.65
2022-08-02T03:20:17.768Z,70.07
2022-08-02T03:22:46.698Z,69.57
2022-08-02T03:25:14.869Z,69.60
2022-08-02T03:27:42.414Z,69.53
2022-08-02T03:30:12.296Z,69.00
2022-08-02T03:32:41.238Z,68.74
2022-08-02T03:35:11.253Z,69.26
2022-08-02T03:37:39.225Z,68.97
2022-08-02T03:40:08.740Z,69.25
2022-08-02T03:42:35.784Z,69.69
2022-08-02T03:45:08.492Z,69.62
2022-08-02T03:47:38.814Z,69.52
2022-08-02T03:50:14.581Z,69.37
2022-08-02T03:52:44.338Z,68.86
2022-08-02T03:55:13.463Z,68.51
2022-08-02T03:57:42.554Z,68.16
2022-08-02T04:00:12.254Z,67.66
2022-08-02T04:02:45.417Z,66.74
2022-08-02T04:05:12.443Z,65.77
2022-08-02T04:08:33.693Z,64.88
2022-08-02T04:10:26.866Z,63.47
2022-08-02T04:12:54.888Z,63.68
2022-08-02T04:15:23.828Z,63.32
2022-08-02T04:17:57.532Z,62.49
2022-08-02T04:20:30.205Z,61.58
2022-08-02T04:23:10.125Z,61.14
2022-08-02T04:25:40.442Z,61.08
2022-08-02T04:28:16.580Z,60.19
2022-08-02T04:30:46.931Z,60.05
2022-08-02T04:33:14.629Z,59.21
2022-08-02T04:35:41.847Z,58.17
2022-08-02T04:38:10.676Z,58.33
2022-08-02T04:40:38.745Z,57.90
2022-08-02T04:43:06.269Z,56.91
2022-08-02T04:45:33.649Z,56.77
2022-08-02T04:48:07.657Z,57.15
2022-08-02T04:50:35.430Z,56.94
2022-08-02T04:53:02.798Z,57.58
2022-08-02T04:55:30.271Z,57.93
2022-08-02T04:57:58.413Z,59.79
2022-08-02T05:00:27.716Z,60.98
2022-08-02T05:02:56.971Z,62.50
2022-08-02T05:05:24.076Z,63.11
2022-08-02T05:07:51.084Z,63.99
2022-08-02T05:10:18.471Z,64.08
2022-08-02T05:12:45.539Z,64.12
2022-08-02T05:15:14.363Z,64.12
2022-08-02T05:17:46.869Z,61.82
2022-08-02T05:20:19.277Z,59.43
2022-08-02T05:22:46.772Z,56.78
2022-08-02T05:25:13.977Z,57.79
2022-08-02T05:27:42.406Z,58.43
2022-08-02T05:30:10.168Z,59.65
2022-08-02T05:32:48.130Z,60.12
2022-08-02T05:35:19.925Z,58.62
2022-08-02T05:37:48.467Z,53.40
2022-08-02T05:40:16.495Z,50.65
2022-08-02T05:42:44.604Z,47.14
2022-08-02T05:45:12.234Z,47.53
2022-08-02T05:47:39.979Z,49.84
2022-08-02T05:50:09.342Z,45.84
2022-08-02T05:52:45.650Z,46.25
2022-08-02T05:55:19.304Z,45.33
2022-08-02T05:57:53.732Z,43.89
2022-08-02T06:00:22.253Z,42.11
2022-08-02T06:03:22.732Z,41.23
2022-08-02T06:06:02.221Z,41.50
2022-08-02T06:08:33.988Z,42.48
2022-08-02T06:11:03.691Z,42.73
2022-08-02T06:13:31.512Z,39.99
2022-08-02T06:16:00.245Z,37.57
2022-08-02T06:18:28.865Z,36.01
2022-08-02T06:22:33.473Z,31.99
2022-08-02T06:23:57.380Z,30.13
2022-08-02T06:26:27.982Z,32.46
2022-08-02T06:28:57.473Z,31.88
2022-08-02T06:31:25.142Z,29.88
2022-08-02T06:33:52.438Z,31.30
2022-08-02T06:36:32.146Z,32.48
2022-08-02T06:39:25.907Z,32.81
2022-08-02T06:41:57.980Z,32.62
2022-08-02T06:44:48.704Z,33.89
2022-08-02T06:47:18.191Z,30.44
2022-08-02T06:49:51.377Z,30.50
2022-08-02T06:52:23.231Z,31.90
2022-08-02T06:54:55.086Z,30.92
2022-08-02T06:57:22.187Z,31.86
2022-08-02T06:59:49.194Z,32.24
2022-08-02T07:02:16.332Z,32.68
2022-08-02T07:04:43.486Z,32.80
2022-08-02T07:07:10.437Z,32.07
2022-08-02T07:09:37.593Z,32.04
2022-08-02T07:12:05.377Z,30.19
2022-08-02T07:14:32.438Z,31.78
2022-08-02T07:17:03.433Z,31.69
2022-08-02T07:19:37.653Z,32.14
2022-08-02T07:22:05.970Z,30.65
2022-08-02T07:24:33.033Z,29.23
2022-08-02T07:27:15.683Z,27.62
2022-08-02T07:29:46.661Z,27.96
2022-08-02T07:32:22.846Z,27.60
2022-08-02T07:34:50.965Z,27.07
2022-08-02T07:37:35.926Z,26.35
2022-08-02T07:40:14.896Z,26.40
2022-08-02T07:42:45.393Z,25.51
2022-08-02T07:45:13.722Z,23.22
2022-08-02T07:47:41.643Z,25.24
2022-08-02T07:50:10.388Z,23.50
2022-08-02T07:52:37.518Z,25.74
2022-08-02T07:55:05.853Z,25.30
2022-08-02T07:57:33.127Z,24.41
2022-08-02T08:00:00.469Z,24.81
2022-08-02T08:02:27.563Z,24.61
2022-08-02T08:04:54.899Z,25.26
2022-08-02T08:07:22.064Z,23.44
2022-08-02T08:09:53.616Z,23.03
2022-08-02T08:12:24.391Z,22.81
2022-08-02T08:14:51.320Z,23.09
2022-08-02T08:17:18.717Z,23.84
2022-08-02T08:19:51.079Z,23.98
2022-08-02T08:22:22.620Z,21.68
2022-08-02T08:24:50.085Z,23.48
2022-08-02T08:27:18.392Z,22.71
2022-08-02T08:29:46.284Z,23.14
2022-08-02T08:32:17.259Z,23.02
2022-08-02T08:34:48.561Z,23.01
2022-08-02T08:37:18.306Z,21.99
2022-08-02T08:39:58.258Z,21.44
2022-08-02T08:42:31.182Z,22.88
2022-08-02T08:44:59.658Z,24.16
2022-08-02T08:47:35.498Z,21.53
2022-08-02T08:50:22.858Z,21.48
2022-08-02T08:53:04.759Z,22.39
2022-08-02T08:55:33.968Z,21.81
2022-08-02T08:58:02.495Z,20.74
2022-08-02T09:00:34.374Z,22.91
2022-08-02T09:03:08.704Z,25.78
2022-08-02T09:05:38.190Z,28.11
2022-08-02T09:08:06.329Z,28.81
2022-08-02T09:10:48.065Z,27.62
2022-08-02T09:13:38.839Z,24.14
2022-08-02T09:16:13.052Z,23.88
2022-08-02T09:18:46.458Z,23.78
2022-08-02T09:21:16.019Z,24.18
2022-08-02T09:23:51.728Z,26.73
2022-08-02T09:26:23.688Z,24.70
2022-08-02T09:29:01.855Z,24.42
2022-08-02T09:31:29.065Z,22.17
2022-08-02T09:33:58.043Z,22.20
2022-08-02T09:36:26.729Z,23.33
2022-08-02T09:38:58.038Z,22.54
2022-08-02T09:41:30.252Z,21.11
2022-08-02T09:44:05.433Z,18.57
2022-08-02T09:46:42.941Z,18.49
2022-08-02T09:49:13.375Z,21.17
2022-08-02T09:51:47.577Z,21.60
2022-08-02T09:54:18.885Z,20.96
2022-08-02T09:56:51.183Z,24.94
2022-08-02T09:59:20.095Z,23.62
2022-08-02T10:01:51.595Z,22.30
2022-08-02T10:04:34.286Z,24.71
2022-08-02T10:07:21.565Z,23.94
2022-08-02T10:09:50.466Z,21.37
2022-08-02T10:12:17.969Z,19.88
2022-08-02T10:14:45.893Z,22.38
2022-08-02T10:17:13.601Z,26.19
2022-08-02T10:20:02.911Z,23.83
2022-08-02T10:22:28.427Z,21.93
2022-08-02T10:24:55.478Z,22.35
2022-08-02T10:27:25.912Z,24.47
2022-08-02T10:29:57.814Z,23.19
2022-08-02T10:32:31.630Z,20.38
2022-08-02T10:35:19.124Z,20.20
2022-08-02T10:37:56.258Z,21.88
2022-08-02T10:40:23.735Z,24.72
2022-08-02T10:43:01.962Z,24.98
2022-08-02T10:45:29.543Z,24.08
2022-08-02T10:47:59.596Z,25.81
2022-08-02T10:50:46.029Z,23.18
2022-08-02T10:53:42.614Z,22.40
2022-08-02T10:56:09.621Z,21.37
2022-08-02T10:58:36.631Z,21.68
2022-08-02T11:01:06.300Z,24.33
2022-08-02T11:03:39.398Z,24.16
2022-08-02T11:06:08.215Z,25.62
2022-08-02T11:08:35.496Z,28.16
2022-08-02T11:11:18.275Z,30.15
2022-08-02T11:14:08.906Z,27.73
2022-08-02T11:16:57.235Z,23.60
2022-08-02T11:19:24.814Z,22.56
2022-08-02T11:22:16.334Z,22.03
2022-08-02T11:24:47.440Z,26.15
2022-08-02T11:27:21.832Z,24.52
2022-08-02T11:29:49.857Z,24.14
2022-08-02T11:32:18.826Z,22.52
2022-08-02T11:34:52.359Z,27.24
2022-08-02T11:37:32.932Z,30.78
2022-08-02T11:40:00.107Z,32.64
2022-08-02T11:42:34.841Z,36.04
2022-08-02T11:45:02.583Z,38.63
2022-08-02T11:47:31.580Z,39.83
2022-08-02T11:50:09.216Z,40.17
2022-08-02T11:52:37.085Z,38.89
2022-08-02T11:55:06.260Z,38.87
2022-08-02T11:58:02.982Z,39.25
2022-08-02T12:00:22.315Z,38.24
2022-08-02T12:02:54.275Z,37.82
2022-08-02T12:05:44.731Z,38.34
2022-08-02T12:08:10.878Z,39.54
2022-08-02T12:10:47.663Z,39.91
2022-08-02T12:13:14.857Z,40.94
2022-08-02T12:15:47.088Z,40.80
2022-08-02T12:18:50.914Z,39.49
2022-08-02T12:21:23.725Z,38.53
2022-08-02T12:24:00.662Z,38.74
2022-08-02T12:26:29.407Z,38.71
2022-08-02T12:28:58.270Z,38.71
2022-08-02T12:31:56.884Z,38.66
2022-08-02T12:34:32.097Z,38.84
2022-08-02T12:37:10.573Z,38.77
2022-08-02T12:39:46.013Z,37.26
2022-08-02T12:42:16.146Z,37.05
2022-08-02T12:44:58.991Z,36.64
2022-08-02T12:47:31.294Z,38.40
2022-08-02T12:50:21.137Z,38.71
2022-08-02T12:52:49.576Z,39.76
2022-08-02T12:55:16.613Z,39.57
2022-08-02T12:57:53.839Z,39.67
2022-08-02T13:00:29.701Z,38.49
2022-08-02T13:02:57.998Z,37.45
2022-08-02T13:05:25.791Z,37.87
2022-08-02T13:07:53.186Z,37.95
2022-08-02T13:10:21.713Z,36.45
2022-08-02T13:12:48.661Z,36.87
2022-08-02T13:15:49.397Z,37.35
2022-08-02T13:18:03.281Z,36.80
2022-08-02T13:20:30.467Z,36.82
2022-08-02T13:23:03.893Z,36.30
2022-08-02T13:25:31.358Z,36.65
2022-08-02T13:27:58.369Z,37.22
2022-08-02T13:30:25.320Z,37.77
2022-08-02T13:32:52.491Z,37.08
2022-08-02T13:35:19.839Z,36.32
2022-08-02T13:37:47.879Z,36.22
2022-08-02T13:40:22.734Z,36.66
2022-08-02T13:42:50.190Z,35.41
2022-08-02T13:45:17.240Z,36.36
2022-08-02T13:48:03.922Z,35.05
2022-08-02T13:50:32.576Z,35.52
2022-08-02T13:52:59.546Z,36.01
2022-08-02T13:55:26.644Z,36.48
2022-08-02T13:57:54.308Z,36.58
2022-08-02T14:00:34.840Z,36.84
2022-08-02T14:03:07.336Z,36.23
2022-08-02T14:05:47.677Z,36.17
2022-08-02T14:08:17.634Z,36.03
2022-08-02T14:10:45.920Z,36.07
2022-08-02T14:13:12.915Z,36.66
2022-08-02T14:15:39.999Z,36.43
2022-08-02T14:18:06.926Z,36.51
2022-08-02T14:20:33.918Z,36.55
2022-08-02T14:23:00.781Z,37.57
2022-08-02T14:25:27.701Z,37.01
2022-08-02T14:27:54.674Z,37.52
2022-08-02T14:30:23.356Z,37.72
2022-08-02T14:32:50.799Z,37.20
2022-08-02T14:35:17.826Z,37.73
2022-08-02T14:37:44.780Z,37.15
2022-08-02T14:40:28.106Z,36.59
2022-08-02T14:42:59.697Z,36.76
2022-08-02T14:45:41.107Z,36.64
2022-08-02T14:48:10.094Z,35.76
2022-08-02T14:50:36.950Z,36.05
2022-08-02T14:53:03.933Z,35.38
2022-08-02T14:55:30.874Z,35.45
2022-08-02T15:14:10.047Z,69.67
2022-08-02T15:16:55.621Z,70.03
2022-08-02T15:19:23.291Z,71.38
2022-08-02T15:21:54.800Z,72.93
2022-08-02T15:24:24.413Z,72.23
2022-08-02T15:26:51.869Z,73.02
2022-08-02T15:29:19.455Z,72.53
2022-08-02T15:31:47.066Z,72.71
2022-08-02T15:34:14.238Z,71.90
2022-08-02T15:36:45.822Z,71.74
2022-08-02T15:39:12.912Z,72.40
2022-08-02T15:41:39.791Z,72.37
2022-08-02T15:44:09.233Z,72.81
2022-08-02T15:46:38.214Z,72.97
2022-08-02T15:49:06.185Z,72.87
2022-08-02T15:51:33.201Z,71.93
2022-08-02T15:54:00.128Z,71.75
2022-08-02T15:56:27.130Z,72.50
2022-08-02T15:58:58.684Z,72.87
2022-08-02T16:01:37.374Z,72.88
2022-08-02T16:04:07.009Z,73.17
2022-08-02T16:06:37.237Z,72.78
2022-08-02T16:09:04.533Z,73.15
2022-08-02T16:11:31.502Z,73.40
2022-08-02T16:13:59.182Z,73.75
2022-08-02T16:16:29.394Z,72.99
2022-08-02T16:18:56.997Z,73.88
2022-08-02T16:21:24.889Z,73.76
2022-08-02T16:23:58.616Z,74.08
2022-08-02T16:26:34.167Z,74.92
2022-08-02T16:29:02.981Z,74.74
2022-08-02T16:31:30.282Z,74.51
2022-08-02T16:33:57.692Z,73.21
2022-08-02T16:36:26.258Z,72.24
2022-08-02T16:38:54.533Z,72.27
2022-08-02T16:41:22.145Z,72.35
2022-08-02T16:43:49.116Z,72.60
2022-08-02T16:46:16.014Z,72.73
2022-08-02T16:48:50.911Z,73.09
2022-08-02T16:51:19.262Z,72.78
2022-08-02T16:53:59.969Z,73.62
2022-08-02T16:56:28.956Z,73.29
2022-08-02T16:58:59.560Z,73.46
2022-08-02T17:02:02.082Z,74.16
2022-08-02T17:04:15.864Z,74.32
2022-08-02T17:06:47.310Z,74.23
2022-08-02T17:10:04.348Z,74.48
2022-08-02T17:12:09.927Z,74.33
2022-08-02T17:14:41.912Z,74.24
2022-08-02T17:17:21.561Z,74.00
2022-08-02T17:19:48.808Z,74.19
2022-08-02T17:22:17.761Z,73.69
2022-08-02T17:24:44.862Z,73.64
2022-08-02T17:27:17.311Z,73.67
2022-08-02T17:29:47.108Z,73.95
2022-08-02T17:32:18.150Z,73.81
2022-08-02T17:34:56.686Z,74.06
2022-08-02T17:37:28.754Z,74.95
2022-08-02T17:39:57.058Z,74.47
2022-08-02T17:42:25.042Z,74.48
2022-08-02T17:44:54.202Z,74.53
2022-08-02T17:47:22.494Z,74.33
2022-08-02T17:49:50.396Z,74.09
2022-08-02T17:52:50.743Z,74.21
2022-08-02T17:55:10.926Z,74.21
2022-08-02T17:57:57.133Z,74.23
2022-08-02T18:00:26.809Z,74.07
2022-08-02T18:02:55.048Z,74.35
2022-08-02T18:05:23.290Z,74.40
2022-08-02T18:08:06.628Z,74.72
2022-08-02T18:10:34.439Z,74.48
2022-08-02T18:13:03.611Z,74.47
2022-08-02T18:15:32.599Z,74.32
2022-08-02T18:18:00.644Z,74.07
2022-08-02T18:20:27.605Z,74.41
2022-08-02T18:22:58.523Z,74.37
2022-08-02T18:25:36.929Z,74.26
2022-08-02T18:28:13.201Z,73.94
2022-08-02T18:30:40.707Z,73.72
2022-08-02T18:33:56.152Z,73.65
2022-08-02T18:35:55.826Z,73.25
2022-08-02T18:38:26.843Z,73.05
2022-08-02T18:41:12.851Z,72.67
2022-08-02T18:43:43.661Z,72.46
2022-08-02T18:46:15.901Z,71.77
2022-08-02T18:48:46.598Z,71.24
2022-08-02T18:51:16.056Z,71.50
2022-08-02T18:53:46.732Z,71.30
2022-08-02T18:56:20.327Z,71.03
2022-08-02T18:58:56.053Z,71.28
2022-08-02T19:01:33.848Z,71.58
2022-08-02T19:04:04.445Z,71.67
2022-08-02T19:06:32.057Z,71.17
2022-08-02T19:11:48.200Z,71.15
2022-08-02T19:14:27.132Z,71.52
2022-08-02T19:16:59.607Z,71.49
2022-08-02T19:19:28.642Z,71.48
2022-08-02T19:22:16.364Z,72.02
2022-08-02T19:24:45.879Z,71.70
2022-08-02T19:27:14.771Z,71.74
2022-08-02T19:29:48.894Z,71.53
2022-08-02T19:32:41.531Z,71.70
2022-08-02T19:35:19.748Z,71.39
2022-08-02T19:37:52.533Z,71.71
2022-08-02T19:40:24.151Z,72.55
2022-08-02T19:44:27.116Z,72.31
2022-08-02T19:45:49.766Z,72.67
2022-08-02T19:48:23.714Z,72.60
2022-08-02T19:50:56.699Z,72.45
2022-08-02T19:53:29.423Z,72.77
2022-08-02T19:56:20.289Z,73.00
2022-08-02T19:58:51.461Z,72.82
2022-08-02T20:01:23.552Z,73.17
2022-08-02T20:03:55.428Z,73.73
2022-08-02T20:06:29.351Z,73.75
2022-08-02T20:08:59.387Z,73.97
2022-08-02T20:11:34.700Z,73.97
2022-08-02T20:14:04.323Z,74.04
2022-08-02T20:16:32.709Z,74.03
2022-08-02T20:19:01.030Z,74.46
2022-08-02T20:21:34.526Z,74.43
2022-08-02T20:24:05.252Z,74.41
2022-08-02T20:26:32.278Z,74.65
2022-08-02T20:29:02.340Z,74.47
2022-08-02T20:31:30.322Z,74.91
2022-08-02T20:33:57.578Z,74.98
2022-08-02T20:36:28.119Z,74.96
2022-08-02T20:38:55.825Z,75.42
2022-08-02T20:41:23.601Z,76.72
2022-08-02T20:44:04.432Z,76.97
2022-08-02T20:46:43.415Z,77.32
2022-08-02T20:49:23.106Z,76.69
2022-08-02T20:51:52.741Z,76.66
2022-08-02T20:54:21.579Z,76.37
2022-08-02T20:56:50.460Z,75.94
2022-08-02T20:59:17.883Z,76.74
2022-08-02T21:01:56.667Z,76.64
2022-08-02T21:04:24.773Z,76.38
2022-08-02T21:06:52.235Z,74.39
2022-08-02T21:09:19.134Z,76.82
2022-08-02T21:12:00.047Z,77.38
2022-08-02T21:14:27.322Z,77.79
2022-08-02T21:16:54.241Z,78.25
2022-08-02T21:19:21.703Z,77.69
2022-08-02T21:21:48.640Z,77.70
2022-08-02T21:24:16.352Z,77.30
2022-08-02T21:26:47.283Z,77.23
2022-08-02T21:29:15.786Z,77.41
2022-08-02T21:31:43.364Z,78.67
2022-08-02T21:34:22.403Z,78.50
2022-08-02T21:36:54.539Z,78.37
2022-08-02T21:39:21.581Z,78.15
2022-08-02T21:41:49.407Z,78.61
2022-08-02T21:44:20.787Z,78.34
2022-08-02T21:46:50.036Z,78.44
2022-08-02T21:49:27.271Z,78.14
2022-08-02T21:52:09.172Z,79.00
2022-08-02T21:54:39.769Z,79.22
2022-08-02T21:57:15.489Z,79.58
2022-08-02T21:59:47.743Z,80.05
2022-08-02T22:02:18.516Z,80.09
2022-08-02T22:04:47.340Z,79.78
2022-08-02T22:07:23.943Z,79.67
2022-08-02T22:09:52.637Z,79.75
2022-08-02T22:12:21.980Z,80.05
2022-08-02T22:14:55.472Z,80.39
2022-08-02T22:17:52.574Z,80.11
2022-08-02T22:20:12.543Z,79.92
2022-08-02T22:22:58.589Z,79.52
2022-08-02T22:25:36.002Z,79.45
2022-08-02T22:28:37.246Z,79.45
2022-08-02T22:30:52.956Z,79.23
2022-08-02T22:33:42.024Z,79.25
2022-08-02T22:36:13.837Z,79.31
2022-08-02T22:38:44.441Z,79.24
2022-08-02T22:41:12.381Z,79.05
2022-08-02T22:43:39.629Z,78.69
2022-08-02T22:46:06.839Z,78.71
2022-08-02T22:48:36.090Z,78.72
2022-08-02T22:51:07.236Z,79.29
2022-08-02T22:53:36.262Z,80.48
2022-08-02T22:56:04.094Z,81.11
2022-08-02T22:58:31.862Z,80.36
2022-08-02T22:58:59.955Z,70.86
2022-08-02T23:00:58.816Z,81.35
2022-08-02T23:03:25.697Z,81.73
2022-08-02T23:05:52.547Z,81.21
2022-08-02T23:08:19.593Z,81.39
2022-08-02T23:10:46.575Z,80.39
2022-08-02T23:13:13.538Z,79.58
2022-08-02T23:15:59.629Z,80.40
2022-08-02T23:18:45.155Z,79.99
2022-08-02T23:21:12.099Z,80.03
2022-08-02T23:23:38.890Z,79.41
2022-08-02T23:26:05.995Z,78.33
2022-08-02T23:28:32.784Z,78.45
2022-08-02T23:30:59.641Z,78.08
2022-08-02T23:33:26.424Z,78.45
2022-08-02T23:35:53.318Z,78.23
2022-08-02T23:38:20.209Z,77.92
2022-08-02T23:40:47.067Z,77.78
2022-08-02T23:43:15.361Z,77.94
2022-08-02T23:45:43.044Z,78.22
2022-08-02T23:48:09.892Z,78.18
2022-08-02T23:50:36.879Z,78.14
2022-08-02T23:53:03.997Z,77.46
2022-08-02T23:55:30.877Z,76.83
2022-08-02T23:57:57.727Z,76.34
